createdAt,value
2023-02-15T00:02:02.131Z,11.57
2023-02-15T00:04:47.059Z,9.32
2023-02-15T00:07:16.316Z,11.23
2023-02-15T00:09:43.448Z,9.15
2023-02-15T00:12:11.254Z,7.85
2023-02-15T00:14:38.211Z,9.52
2023-02-15T00:17:05.298Z,8.73
2023-02-15T00:19:32.145Z,8.02
2023-02-15T00:21:59.058Z,10.65
2023-02-15T00:24:26.324Z,7.35
2023-02-15T00:26:53.209Z,11.52
2023-02-15T00:29:21.007Z,10.65
2023-02-15T00:31:49.166Z,7.40
2023-02-15T00:34:25.148Z,9.43
2023-02-15T00:36:52.512Z,9.27
2023-02-15T00:39:19.922Z,6.97
2023-02-15T00:41:47.776Z,8.85
2023-02-15T00:44:15.861Z,9.63
2023-02-15T00:46:42.944Z,10.52
2023-02-15T00:49:10.688Z,7.57
2023-02-15T00:51:38.577Z,10.32
2023-02-15T00:54:05.931Z,7.60
2023-02-15T00:56:32.837Z,9.95
2023-02-15T00:58:59.695Z,8.88
2023-02-15T01:01:26.873Z,8.23
2023-02-15T01:03:54.057Z,9.82
2023-02-15T01:06:21.003Z,10.13
2023-02-15T01:08:48.015Z,6.43
2023-02-15T01:11:24.798Z,6.68
2023-02-15T01:13:54.256Z,9.13
2023-02-15T01:16:22.052Z,9.95
2023-02-15T01:18:49.339Z,10.48
2023-02-15T01:21:23.093Z,5.57
2023-02-15T01:23:50.415Z,8.60
2023-02-15T01:26:17.550Z,8.77
2023-02-15T01:28:45.140Z,7.68
2023-02-15T01:31:15.279Z,6.90
2023-02-15T01:33:43.031Z,7.88
2023-02-15T01:36:10.728Z,8.02
2023-02-15T01:38:40.882Z,10.10
2023-02-15T01:41:24.177Z,7.82
2023-02-15T01:44:01.076Z,5.88
2023-02-15T01:46:33.532Z,5.95
2023-02-15T01:49:11.424Z,7.15
2023-02-15T01:51:40.770Z,5.65
2023-02-15T01:54:16.305Z,7.57
2023-02-15T01:56:43.337Z,6.93
2023-02-15T01:59:17.877Z,9.55
2023-02-15T02:01:45.499Z,8.18
2023-02-15T02:04:32.333Z,7.90
2023-02-15T02:07:00.441Z,8.15
2023-02-15T02:09:27.900Z,6.07
2023-02-15T02:11:55.456Z,7.88
2023-02-15T02:14:23.839Z,9.15
2023-02-15T02:16:58.104Z,6.40
2023-02-15T02:19:55.829Z,6.72
2023-02-15T02:26:11.295Z,7.43
2023-02-15T02:29:18.896Z,4.72
2023-02-15T02:32:13.099Z,6.57
2023-02-15T02:34:44.519Z,5.95
2023-02-15T02:37:33.956Z,7.35
2023-02-15T02:40:48.217Z,8.85
2023-02-15T02:43:23.540Z,6.35
2023-02-15T02:46:01.974Z,7.30
2023-02-15T02:48:33.108Z,5.75
2023-02-15T02:51:00.400Z,7.85
2023-02-15T02:53:31.106Z,5.72
2023-02-15T02:56:04.417Z,6.50
2023-02-15T02:59:19.557Z,6.25
2023-02-15T03:02:00.222Z,6.30
2023-02-15T03:04:36.348Z,5.97
2023-02-15T03:07:08.763Z,6.60
2023-02-15T03:09:46.035Z,6.20
2023-02-15T03:12:18.714Z,5.88
2023-02-15T03:15:02.866Z,5.75
2023-02-15T03:17:34.798Z,5.57
2023-02-15T03:20:19.951Z,7.47
2023-02-15T03:22:51.952Z,7.28
2023-02-15T03:25:23.808Z,5.88
2023-02-15T03:27:59.484Z,8.30
2023-02-15T03:30:28.562Z,4.85
2023-02-15T03:32:58.885Z,7.13
2023-02-15T03:35:30.253Z,7.35
2023-02-15T03:38:01.791Z,8.30
2023-02-15T03:40:58.332Z,6.45
2023-02-15T03:43:50.858Z,6.82
2023-02-15T03:47:07.973Z,7.38
2023-02-15T03:49:54.450Z,9.25
2023-02-15T03:52:24.452Z,8.45
2023-02-15T03:54:52.764Z,10.60
2023-02-15T03:57:38.219Z,9.43
2023-02-15T04:00:34.917Z,8.20
2023-02-15T04:03:35.620Z,6.82
2023-02-15T04:06:03.922Z,10.32
2023-02-15T04:08:49.527Z,9.75
2023-02-15T04:11:16.314Z,8.95
2023-02-15T04:13:43.128Z,7.93
2023-02-15T04:16:10.572Z,9.60
2023-02-15T04:19:00.579Z,7.30
2023-02-15T04:21:49.426Z,9.90
2023-02-15T04:24:35.254Z,6.55
2023-02-15T04:27:04.081Z,7.72
2023-02-15T04:29:31.843Z,7.68
2023-02-15T04:32:00.768Z,13.88
2023-02-15T04:34:27.880Z,7.95
2023-02-15T04:36:54.731Z,6.43
2023-02-15T04:39:21.574Z,5.55
2023-02-15T04:41:48.917Z,6.03
2023-02-15T04:44:16.044Z,8.52
2023-02-15T04:46:42.879Z,8.07
2023-02-15T04:49:10.296Z,6.90
2023-02-15T04:51:37.479Z,10.25
2023-02-15T04:54:04.431Z,12.98
2023-02-15T04:56:32.171Z,6.90
2023-02-15T04:58:58.975Z,9.60
2023-02-15T05:01:25.814Z,5.65
2023-02-15T05:03:52.764Z,6.72
2023-02-15T05:06:19.658Z,7.75
2023-02-15T05:08:46.489Z,9.50
2023-02-15T05:11:13.381Z,5.85
2023-02-15T05:13:40.811Z,8.82
2023-02-15T05:16:07.688Z,7.75
2023-02-15T05:18:34.821Z,6.93
2023-02-15T05:21:01.654Z,6.15
2023-02-15T05:23:28.404Z,9.40
2023-02-15T05:26:13.767Z,6.47
2023-02-15T05:28:40.626Z,6.90
2023-02-15T05:31:11.615Z,5.15
2023-02-15T05:33:39.404Z,10.65
2023-02-15T05:36:07.289Z,6.20
2023-02-15T05:38:34.278Z,6.80
2023-02-15T05:41:01.304Z,6.03
2023-02-15T05:43:28.933Z,11.02
2023-02-15T05:45:56.137Z,8.73
2023-02-15T05:48:25.058Z,8.23
2023-02-15T05:51:01.539Z,5.43
2023-02-15T05:53:30.097Z,8.77
2023-02-15T05:56:00.531Z,6.93
2023-02-15T05:58:38.417Z,7.13
2023-02-15T06:01:18.148Z,7.22
2023-02-15T06:03:46.434Z,6.72
2023-02-15T06:06:13.391Z,6.20
2023-02-15T06:08:41.094Z,8.70
2023-02-15T06:11:08.385Z,7.47
2023-02-15T06:13:38.366Z,8.38
2023-02-15T06:16:06.606Z,7.43
2023-02-15T06:18:33.846Z,8.25
2023-02-15T06:21:00.648Z,12.40
2023-02-15T06:23:27.487Z,9.20
2023-02-15T06:25:55.021Z,7.88
2023-02-15T06:28:22.204Z,6.07
2023-02-15T06:30:49.000Z,10.38
2023-02-15T06:33:15.860Z,6.55
2023-02-15T06:35:42.761Z,4.60
2023-02-15T06:38:09.550Z,5.40
2023-02-15T06:40:37.539Z,8.27
2023-02-15T06:43:05.013Z,6.57
2023-02-15T06:45:31.827Z,6.50
2023-02-15T06:47:58.600Z,9.45
2023-02-15T06:50:25.451Z,9.05
2023-02-15T06:52:57.766Z,10.40
2023-02-15T06:55:24.751Z,6.70
2023-02-15T06:57:51.510Z,4.78
2023-02-15T07:00:19.284Z,10.38
2023-02-15T07:02:46.294Z,7.95
2023-02-15T07:05:13.194Z,10.20
2023-02-15T07:07:40.100Z,6.97
2023-02-15T07:10:07.658Z,12.27
2023-02-15T07:12:43.628Z,7.75
2023-02-15T07:15:12.124Z,6.88
2023-02-15T07:17:39.068Z,13.75
2023-02-15T07:20:11.975Z,7.95
2023-02-15T07:22:39.366Z,8.02
2023-02-15T07:25:08.172Z,8.45
2023-02-15T07:27:35.624Z,11.95
2023-02-15T07:30:03.313Z,7.28
2023-02-15T07:32:32.582Z,8.35
2023-02-15T07:35:00.241Z,9.07
2023-02-15T07:37:28.182Z,11.30
2023-02-15T07:39:54.984Z,7.45
2023-02-15T07:42:23.013Z,9.50
2023-02-15T07:44:50.127Z,6.30
2023-02-15T07:47:17.047Z,5.63
2023-02-15T07:49:43.842Z,5.20
2023-02-15T07:52:10.737Z,4.00
2023-02-15T07:54:37.498Z,6.43
2023-02-15T07:57:04.384Z,5.75
2023-02-15T07:59:31.201Z,5.20
2023-02-15T08:01:58.192Z,5.15
2023-02-15T08:04:25.446Z,4.20
2023-02-15T08:06:55.958Z,6.57
2023-02-15T08:09:23.038Z,6.53
2023-02-15T08:11:50.051Z,6.07
2023-02-15T08:14:19.522Z,4.55
2023-02-15T08:16:47.835Z,6.32
2023-02-15T08:19:19.048Z,5.45
2023-02-15T08:24:21.794Z,6.22
2023-02-15T08:26:49.862Z,6.57
2023-02-15T08:29:20.162Z,6.68
2023-02-15T08:31:48.828Z,5.72
2023-02-15T08:34:18.762Z,6.55
2023-02-15T08:36:46.356Z,5.60
2023-02-15T08:39:15.416Z,7.35
2023-02-15T08:41:47.740Z,6.50
2023-02-15T08:44:19.536Z,7.10
2023-02-15T08:46:47.880Z,8.32
2023-02-15T08:49:22.720Z,6.50
2023-02-15T08:51:50.206Z,5.07
2023-02-15T08:54:20.115Z,6.80
2023-02-15T08:56:47.377Z,8.35
2023-02-15T08:59:24.304Z,8.75
2023-02-15T09:01:52.645Z,7.53
2023-02-15T09:04:20.235Z,10.75
2023-02-15T09:06:49.402Z,7.47
2023-02-15T09:09:20.121Z,7.57
2023-02-15T09:11:52.397Z,4.97
2023-02-15T09:14:22.591Z,6.85
2023-02-15T09:16:51.980Z,5.22
2023-02-15T09:19:20.982Z,9.48
2023-02-15T09:21:48.208Z,8.25
2023-02-15T09:24:17.389Z,9.77
2023-02-15T09:26:46.060Z,5.40
2023-02-15T09:29:14.053Z,6.53
2023-02-15T09:31:47.288Z,3.25
2023-02-15T09:34:17.556Z,6.97
2023-02-15T09:36:45.561Z,6.38
2023-02-15T09:39:28.928Z,6.55
2023-02-15T09:42:01.671Z,5.47
2023-02-15T09:44:34.377Z,8.15
2023-02-15T09:47:13.454Z,9.30
2023-02-15T09:50:17.269Z,5.00
2023-02-15T09:53:21.609Z,6.35
2023-02-15T09:56:16.639Z,5.03
2023-02-15T09:58:52.339Z,5.10
2023-02-15T10:01:28.100Z,8.68
2023-02-15T10:04:15.408Z,7.88
2023-02-15T10:07:10.314Z,6.13
2023-02-15T10:09:49.192Z,8.05
2023-02-15T10:12:19.119Z,8.55
2023-02-15T10:15:10.240Z,10.40
2023-02-15T10:17:57.461Z,6.75
2023-02-15T10:20:36.318Z,8.18
2023-02-15T10:23:21.947Z,9.93
2023-02-15T10:25:54.995Z,7.95
2023-02-15T10:28:44.766Z,6.68
2023-02-15T10:31:23.907Z,8.75
2023-02-15T10:34:34.525Z,8.15
2023-02-15T10:37:37.143Z,7.05
2023-02-15T10:40:21.218Z,9.45
2023-02-15T10:42:51.123Z,8.93
2023-02-15T10:45:20.660Z,10.15
2023-02-15T10:48:09.607Z,14.25
2023-02-15T10:50:45.552Z,9.25
2023-02-15T10:53:12.397Z,10.73
2023-02-15T10:56:05.454Z,11.23
2023-02-15T10:59:16.914Z,9.35
2023-02-15T11:04:46.908Z,7.70
2023-02-15T11:07:17.166Z,7.82
2023-02-15T11:10:08.604Z,9.63
2023-02-15T11:12:35.583Z,7.90
2023-02-15T11:15:11.234Z,8.98
2023-02-15T11:17:44.392Z,8.07
2023-02-15T11:20:23.262Z,10.55
2023-02-15T11:22:54.150Z,9.85
2023-02-15T11:25:29.583Z,9.57
2023-02-15T11:27:57.273Z,10.23
2023-02-15T11:30:29.418Z,8.88
2023-02-15T11:32:59.764Z,13.45
2023-02-15T11:35:43.552Z,11.45
2023-02-15T11:38:19.710Z,10.80
2023-02-15T11:41:10.057Z,8.05
2023-02-15T11:43:51.014Z,13.17
2023-02-15T11:46:19.697Z,9.43
2023-02-15T11:48:46.546Z,12.25
2023-02-15T11:51:17.867Z,15.75
2023-02-15T11:53:46.564Z,12.73
2023-02-15T11:56:23.585Z,9.35
2023-02-15T11:58:59.412Z,20.35
2023-02-15T12:01:33.481Z,11.23
2023-02-15T12:04:26.230Z,16.80
2023-02-15T12:07:03.145Z,18.77
2023-02-15T12:09:41.754Z,19.27
2023-02-15T12:12:26.908Z,16.70
2023-02-15T12:14:56.704Z,17.17
2023-02-15T12:17:30.045Z,17.00
2023-02-15T12:20:00.976Z,16.65
2023-02-15T12:22:33.421Z,14.23
2023-02-15T12:25:03.291Z,15.82
2023-02-15T12:27:33.243Z,14.13
2023-02-15T12:30:12.469Z,14.35
2023-02-15T12:32:58.601Z,13.75
2023-02-15T12:35:37.373Z,18.88
2023-02-15T12:38:28.678Z,14.35
2023-02-15T12:41:20.507Z,18.60
2023-02-15T12:43:47.424Z,14.32
2023-02-15T12:46:24.359Z,16.27
2023-02-15T12:49:21.459Z,14.98
2023-02-15T12:52:03.865Z,12.75
2023-02-15T12:54:35.414Z,19.88
2023-02-15T12:57:26.389Z,17.67
2023-02-15T12:59:56.641Z,20.27
2023-02-15T13:02:43.144Z,19.15
2023-02-15T13:05:37.467Z,20.70
2023-02-15T13:08:17.732Z,23.00
2023-02-15T13:10:58.740Z,17.65
2023-02-15T13:13:35.492Z,15.90
2023-02-15T13:16:15.797Z,19.23
2023-02-15T13:18:47.753Z,19.80
2023-02-15T13:21:19.739Z,15.38
2023-02-15T13:23:50.475Z,19.58
2023-02-15T13:26:21.447Z,17.70
2023-02-15T13:28:51.605Z,20.55
2023-02-15T13:31:25.113Z,17.03
2023-02-15T13:33:55.454Z,26.35
2023-02-15T13:36:28.509Z,20.80
2023-02-15T13:39:16.458Z,19.15
2023-02-15T13:42:22.214Z,25.02
2023-02-15T13:45:26.557Z,17.08
2023-02-15T13:47:58.983Z,18.90
2023-02-15T13:50:47.047Z,17.50
2023-02-15T13:53:22.908Z,17.27
2023-02-15T13:55:54.522Z,19.48
2023-02-15T13:58:36.262Z,17.05
2023-02-15T14:01:16.187Z,18.00
2023-02-15T14:04:01.888Z,19.35
2023-02-15T14:06:45.693Z,18.85
2023-02-15T14:09:34.974Z,16.75
2023-02-15T14:12:24.033Z,13.20
2023-02-15T14:15:00.877Z,18.52
2023-02-15T14:17:56.414Z,20.83
2023-02-15T14:20:31.994Z,22.00
2023-02-15T14:23:29.099Z,19.80
2023-02-15T14:26:01.406Z,19.38
2023-02-15T14:29:03.309Z,20.95
2023-02-15T14:31:40.896Z,18.63
2023-02-15T14:34:38.448Z,20.23
2023-02-15T14:37:05.976Z,18.27
2023-02-15T14:40:23.281Z,21.33
2023-02-15T14:43:09.741Z,16.98
2023-02-15T14:46:07.190Z,20.73
2023-02-15T14:48:47.429Z,20.50
2023-02-15T14:51:48.716Z,20.65
2023-02-15T14:54:18.844Z,21.95
2023-02-15T14:56:48.139Z,18.67
2023-02-15T14:59:18.449Z,16.38
2023-02-15T15:02:10.684Z,24.63
2023-02-15T15:04:56.988Z,17.83
2023-02-15T15:07:37.559Z,29.05
2023-02-15T15:10:21.537Z,24.00
2023-02-15T15:12:50.082Z,21.67
2023-02-15T15:15:29.778Z,34.40
2023-02-15T15:18:09.483Z,22.02
2023-02-15T15:20:51.873Z,25.08
2023-02-15T15:23:19.558Z,19.23
2023-02-15T15:26:23.058Z,38.78
2023-02-15T15:28:51.360Z,22.20
2023-02-15T15:31:18.475Z,22.17
2023-02-15T15:34:11.493Z,21.75
2023-02-15T15:36:47.478Z,24.02
2023-02-15T15:39:24.152Z,18.13
2023-02-15T15:42:08.679Z,19.70
2023-02-15T15:45:05.156Z,20.85
2023-02-15T15:48:05.246Z,19.92
2023-02-15T15:50:35.348Z,19.98
2023-02-15T15:53:04.276Z,23.75
2023-02-15T15:55:34.668Z,21.02
2023-02-15T15:58:06.856Z,25.77
2023-02-15T16:00:55.995Z,28.10
2023-02-15T16:03:24.919Z,19.08
2023-02-15T16:05:56.077Z,20.60
2023-02-15T16:08:36.464Z,27.40
2023-02-15T16:11:15.396Z,23.38
2023-02-15T16:13:43.411Z,23.40
2023-02-15T16:16:14.133Z,21.35
2023-02-15T16:18:43.754Z,25.70
2023-02-15T16:21:23.689Z,29.02
2023-02-15T16:24:35.377Z,21.23
2023-02-15T16:27:21.012Z,22.30
2023-02-15T16:29:48.158Z,21.73
2023-02-15T16:32:27.100Z,22.05
2023-02-15T16:37:35.511Z,18.48
2023-02-15T16:40:02.952Z,18.98
2023-02-15T16:42:30.362Z,21.63
2023-02-15T16:45:28.058Z,22.70
2023-02-15T16:48:00.436Z,25.98
2023-02-15T16:50:38.102Z,26.15
2023-02-15T16:53:08.694Z,20.67
2023-02-15T16:55:43.609Z,23.83
2023-02-15T16:58:19.817Z,27.58
2023-02-15T17:00:52.987Z,25.08
2023-02-15T17:03:28.343Z,21.67
2023-02-15T17:05:59.590Z,21.35
2023-02-15T17:08:44.407Z,25.40
2023-02-15T17:11:23.561Z,19.65
2023-02-15T17:14:05.824Z,22.10
2023-02-15T17:16:49.990Z,23.85
2023-02-15T17:19:29.613Z,22.95
2023-02-15T17:21:59.962Z,22.67
2023-02-15T17:24:40.267Z,31.33
2023-02-15T17:27:22.056Z,34.67
2023-02-15T17:29:57.197Z,45.45
2023-02-15T17:32:27.289Z,52.45
2023-02-15T17:35:09.136Z,49.70
2023-02-15T17:37:38.720Z,42.17
2023-02-15T17:40:26.704Z,23.88
2023-02-15T17:42:54.506Z,27.55
2023-02-15T17:45:22.937Z,25.75
2023-02-15T17:47:50.517Z,22.90
2023-02-15T17:50:28.315Z,28.52
2023-02-15T17:52:57.524Z,27.70
2023-02-15T17:55:41.194Z,26.15
2023-02-15T17:58:09.316Z,22.50
2023-02-15T18:00:59.038Z,30.75
2023-02-15T18:03:53.354Z,27.25
2023-02-15T18:06:39.184Z,20.58
2023-02-15T18:09:25.179Z,21.80
2023-02-15T18:11:52.154Z,20.92
2023-02-15T18:14:19.000Z,22.17
2023-02-15T18:16:46.212Z,22.55
2023-02-15T18:19:22.745Z,29.10
2023-02-15T18:21:50.163Z,18.83
2023-02-15T18:24:19.960Z,20.65
2023-02-15T18:26:47.915Z,20.45
2023-02-15T18:29:14.755Z,21.65
2023-02-15T18:31:43.483Z,21.60
2023-02-15T18:34:21.032Z,22.17
2023-02-15T18:36:48.700Z,16.98
2023-02-15T18:39:40.799Z,31.73
2023-02-15T18:42:21.623Z,22.50
2023-02-15T18:44:49.983Z,23.42
2023-02-15T18:47:16.735Z,21.40
2023-02-15T18:49:43.674Z,18.33
2023-02-15T18:52:17.464Z,35.20
2023-02-15T18:54:46.122Z,62.22
2023-02-15T18:57:14.625Z,47.75
2023-02-15T18:59:41.526Z,27.40
2023-02-15T19:02:19.102Z,24.23
2023-02-15T19:04:49.221Z,23.55
2023-02-15T19:07:26.450Z,23.42
2023-02-15T19:09:57.131Z,19.98
2023-02-15T19:12:27.213Z,25.35
2023-02-15T19:14:55.897Z,17.53
2023-02-15T19:17:24.943Z,24.70
2023-02-15T19:19:52.891Z,19.83
2023-02-15T19:22:31.289Z,24.73
2023-02-15T19:25:01.176Z,17.95
2023-02-15T19:27:35.095Z,21.15
2023-02-15T19:30:19.956Z,19.08
2023-02-15T19:32:47.322Z,17.42
2023-02-15T19:35:22.476Z,26.15
2023-02-15T19:37:52.574Z,83.80
2023-02-15T19:40:29.616Z,61.50
2023-02-15T19:42:56.732Z,44.40
2023-02-15T19:45:26.632Z,33.05
2023-02-15T19:47:55.067Z,29.08
2023-02-15T19:50:28.404Z,21.85
2023-02-15T19:52:56.042Z,23.67
2023-02-15T19:55:28.905Z,21.02
2023-02-15T19:57:57.830Z,26.15
2023-02-15T20:00:30.293Z,22.40
2023-02-15T20:02:59.394Z,18.27
2023-02-15T20:05:28.278Z,19.10
2023-02-15T20:07:55.900Z,17.25
2023-02-15T20:10:31.009Z,12.80
2023-02-15T20:12:58.465Z,21.30
2023-02-15T20:15:34.700Z,20.55
2023-02-15T20:18:04.033Z,19.05
2023-02-15T20:20:39.747Z,19.48
2023-02-15T20:23:07.122Z,16.30
2023-02-15T20:25:34.138Z,16.58
2023-02-15T20:28:01.627Z,16.17
2023-02-15T20:30:32.569Z,17.70
2023-02-15T20:35:28.835Z,22.10
2023-02-15T20:38:02.732Z,19.55
2023-02-15T20:40:32.732Z,16.27
2023-02-15T20:43:00.915Z,20.38
2023-02-15T20:45:33.004Z,19.25
2023-02-15T20:48:01.891Z,15.02
2023-02-15T20:50:32.207Z,22.15
2023-02-15T20:53:02.960Z,20.10
2023-02-15T20:55:32.024Z,20.35
2023-02-15T20:57:59.659Z,24.58
2023-02-15T21:00:29.148Z,14.82
2023-02-15T21:02:59.209Z,18.63
2023-02-15T21:05:30.155Z,17.17
2023-02-15T21:07:57.375Z,19.20
2023-02-15T21:10:34.895Z,18.70
2023-02-15T21:13:03.284Z,22.42
2023-02-15T21:15:34.576Z,21.30
2023-02-15T21:18:05.448Z,17.55
2023-02-15T21:23:04.252Z,16.60
2023-02-15T21:25:34.942Z,18.08
2023-02-15T21:28:02.050Z,18.77
2023-02-15T21:30:29.285Z,20.52
2023-02-15T21:32:56.090Z,21.23
2023-02-15T21:35:23.126Z,25.98
2023-02-15T21:37:51.956Z,15.80
2023-02-15T21:40:26.367Z,18.58
2023-02-15T21:43:11.725Z,20.65
2023-02-15T21:45:57.260Z,21.48
2023-02-15T21:48:24.180Z,19.27
2023-02-15T21:51:09.597Z,22.52
2023-02-15T21:53:45.980Z,17.45
2023-02-15T21:56:16.109Z,18.95
2023-02-15T21:58:43.298Z,16.70
2023-02-15T22:01:28.981Z,16.25
2023-02-15T22:03:58.880Z,19.48
2023-02-15T22:06:25.811Z,15.50
2023-02-15T22:08:52.654Z,17.17
2023-02-15T22:11:22.531Z,17.27
2023-02-15T22:13:50.492Z,22.27
2023-02-15T22:16:19.882Z,19.98
2023-02-15T22:18:48.001Z,22.33
2023-02-15T22:21:19.175Z,16.40
2023-02-15T22:23:47.050Z,18.75
2023-02-15T22:26:20.750Z,18.83
2023-02-15T22:28:47.900Z,22.70
2023-02-15T22:31:19.411Z,20.25
2023-02-15T22:33:46.369Z,19.33
2023-02-15T22:36:28.749Z,20.50
2023-02-15T22:38:56.788Z,19.85
2023-02-15T22:41:28.204Z,16.10
2023-02-15T22:43:56.073Z,19.77
2023-02-15T22:46:25.074Z,17.60
2023-02-15T22:48:52.213Z,22.17
2023-02-15T22:51:24.619Z,16.23
2023-02-15T22:53:53.189Z,17.98
2023-02-15T22:56:31.352Z,19.88
2023-02-15T22:59:02.716Z,17.77
2023-02-15T23:01:32.767Z,16.80
2023-02-15T23:04:02.822Z,19.10
2023-02-15T23:06:30.472Z,18.80
2023-02-15T23:08:57.350Z,19.65
2023-02-15T23:11:24.244Z,14.77
2023-02-15T23:13:51.137Z,18.17
2023-02-15T23:16:18.703Z,21.83
2023-02-15T23:18:46.930Z,21.98
2023-02-15T23:21:33.946Z,19.13
2023-02-15T23:24:27.530Z,21.20
2023-02-15T23:26:54.753Z,20.20
2023-02-15T23:29:24.061Z,17.92
2023-02-15T23:31:53.237Z,18.33
2023-02-15T23:34:24.804Z,20.08
2023-02-15T23:36:51.720Z,18.27
2023-02-15T23:39:46.349Z,16.02
2023-02-15T23:42:14.832Z,13.40
2023-02-15T23:44:43.689Z,17.10
2023-02-15T23:47:53.683Z,17.15
2023-02-15T23:50:25.346Z,14.57
2023-02-15T23:52:53.914Z,17.17
2023-02-15T23:55:21.610Z,17.70
2023-02-15T23:57:49.442Z,15.00
